sensor_id;sensor_type;location;lat;lon;timestamp;P1;durP1;ratioP1;P2;durP2;ratioP2
35522;SDS011;61478;50.820;4.330;2022-10-15T00:00:35;32.63;;;26.98;;
35522;SDS011;61478;50.820;4.330;2022-10-15T00:03:02;30.90;;;26.80;;
35522;SDS011;61478;50.820;4.330;2022-10-15T00:05:28;29.05;;;25.83;;
35522;SDS011;61478;50.820;4.330;2022-10-15T00:07:54;33.50;;;26.25;;
35522;SDS011;61478;50.820;4.330;2022-10-15T00:10:20;31.80;;;24.55;;
35522;SDS011;61478;50.820;4.330;2022-10-15T00:12:47;29.90;;;25.58;;
35522;SDS011;61478;50.820;4.330;2022-10-15T00:15:13;27.10;;;23.65;;
35522;SDS011;61478;50.820;4.330;2022-10-15T00:17:40;34.53;;;25.45;;
35522;SDS011;61478;50.820;4.330;2022-10-15T00:20:08;27.52;;;24.00;;
35522;SDS011;61478;50.820;4.330;2022-10-15T00:26:07;28.38;;;24.17;;
35522;SDS011;61478;50.820;4.330;2022-10-15T00:28:34;27.17;;;23.45;;
35522;SDS011;61478;50.820;4.330;2022-10-15T00:31:08;27.30;;;23.10;;
35522;SDS011;61478;50.820;4.330;2022-10-15T00:33:38;27.00;;;22.35;;
35522;SDS011;61478;50.820;4.330;2022-10-15T00:52:10;24.15;;;19.67;;
35522;SDS011;61478;50.820;4.330;2022-10-15T00:54:42;23.35;;;19.80;;
35522;SDS011;61478;50.820;4.330;2022-10-15T01:00:36;24.67;;;19.92;;
35522;SDS011;61478;50.820;4.330;2022-10-15T01:03:02;22.95;;;20.55;;
35522;SDS011;61478;50.820;4.330;2022-10-15T01:05:28;23.92;;;21.13;;
35522;SDS011;61478;50.820;4.330;2022-10-15T01:07:55;23.70;;;21.20;;
35522;SDS011;61478;50.820;4.330;2022-10-15T01:10:21;23.95;;;20.33;;
35522;SDS011;61478;50.820;4.330;2022-10-15T01:13:06;24.80;;;21.50;;
35522;SDS011;61478;50.820;4.330;2022-10-15T01:15:59;26.08;;;21.45;;
35522;SDS011;61478;50.820;4.330;2022-10-15T01:18:41;25.83;;;21.70;;
35522;SDS011;61478;50.820;4.330;2022-10-15T01:26:56;24.10;;;21.55;;
35522;SDS011;61478;50.820;4.330;2022-10-15T01:32:37;29.20;;;23.25;;
35522;SDS011;61478;50.820;4.330;2022-10-15T01:37:54;37.03;;;25.63;;
35522;SDS011;61478;50.820;4.330;2022-10-15T01:40:56;30.83;;;23.42;;
35522;SDS011;61478;50.820;4.330;2022-10-15T01:43:50;29.08;;;24.23;;
35522;SDS011;61478;50.820;4.330;2022-10-15T01:46:42;26.33;;;22.30;;
35522;SDS011;61478;50.820;4.330;2022-10-15T01:49:18;28.83;;;24.45;;
35522;SDS011;61478;50.820;4.330;2022-10-15T01:51:50;29.70;;;24.45;;
35522;SDS011;61478;50.820;4.330;2022-10-15T01:54:19;31.58;;;23.63;;
35522;SDS011;61478;50.820;4.330;2022-10-15T01:56:49;27.08;;;24.13;;
35522;SDS011;61478;50.820;4.330;2022-10-15T01:59:17;27.95;;;24.90;;
35522;SDS011;61478;50.820;4.330;2022-10-15T02:01:49;28.73;;;25.48;;
35522;SDS011;61478;50.820;4.330;2022-10-15T02:10:41;33.38;;;26.60;;
35522;SDS011;61478;50.820;4.330;2022-10-15T02:13:23;29.55;;;26.38;;
35522;SDS011;61478;50.820;4.330;2022-10-15T02:16:22;32.78;;;26.90;;
35522;SDS011;61478;50.820;4.330;2022-10-15T02:21:23;34.05;;;29.05;;
35522;SDS011;61478;50.820;4.330;2022-10-15T02:26:32;32.15;;;27.35;;
35522;SDS011;61478;50.820;4.330;2022-10-15T02:29:02;32.38;;;26.77;;
35522;SDS011;61478;50.820;4.330;2022-10-15T02:31:31;34.78;;;27.35;;
35522;SDS011;61478;50.820;4.330;2022-10-15T02:34:04;39.17;;;28.23;;
35522;SDS011;61478;50.820;4.330;2022-10-15T02:36:32;34.28;;;27.65;;
35522;SDS011;61478;50.820;4.330;2022-10-15T02:38:58;32.60;;;28.10;;
35522;SDS011;61478;50.820;4.330;2022-10-15T02:41:27;27.90;;;24.90;;
35522;SDS011;61478;50.820;4.330;2022-10-15T02:43:54;31.48;;;24.80;;
35522;SDS011;61478;50.820;4.330;2022-10-15T02:46:20;30.15;;;25.52;;
35522;SDS011;61478;50.820;4.330;2022-10-15T02:48:46;30.80;;;25.63;;
35522;SDS011;61478;50.820;4.330;2022-10-15T02:51:12;28.52;;;24.35;;
35522;SDS011;61478;50.820;4.330;2022-10-15T02:53:38;27.67;;;23.63;;
35522;SDS011;61478;50.820;4.330;2022-10-15T02:56:05;28.42;;;23.73;;
35522;SDS011;61478;50.820;4.330;2022-10-15T02:58:31;34.33;;;26.45;;
35522;SDS011;61478;50.820;4.330;2022-10-15T03:00:57;36.58;;;25.20;;
35522;SDS011;61478;50.820;4.330;2022-10-15T03:03:23;27.52;;;24.45;;
35522;SDS011;61478;50.820;4.330;2022-10-15T03:05:49;34.65;;;24.33;;
35522;SDS011;61478;50.820;4.330;2022-10-15T03:08:15;28.00;;;25.00;;
35522;SDS011;61478;50.820;4.330;2022-10-15T03:10:41;25.70;;;22.90;;
35522;SDS011;61478;50.820;4.330;2022-10-15T03:13:10;25.92;;;23.08;;
35522;SDS011;61478;50.820;4.330;2022-10-15T03:15:36;25.90;;;23.10;;
35522;SDS011;61478;50.820;4.330;2022-10-15T03:18:03;26.58;;;23.73;;
35522;SDS011;61478;50.820;4.330;2022-10-15T03:20:29;25.15;;;22.50;;
35522;SDS011;61478;50.820;4.330;2022-10-15T03:22:57;28.20;;;23.45;;
35522;SDS011;61478;50.820;4.330;2022-10-15T03:25:23;27.63;;;24.73;;
35522;SDS011;61478;50.820;4.330;2022-10-15T03:27:49;27.38;;;23.45;;
35522;SDS011;61478;50.820;4.330;2022-10-15T03:30:17;27.77;;;24.20;;
35522;SDS011;61478;50.820;4.330;2022-10-15T03:32:43;29.55;;;25.55;;
35522;SDS011;61478;50.820;4.330;2022-10-15T03:35:12;28.98;;;25.17;;
35522;SDS011;61478;50.820;4.330;2022-10-15T03:37:41;32.80;;;27.13;;
35522;SDS011;61478;50.820;4.330;2022-10-15T03:40:07;31.90;;;26.05;;
35522;SDS011;61478;50.820;4.330;2022-10-15T03:42:33;34.90;;;27.25;;
35522;SDS011;61478;50.820;4.330;2022-10-15T03:44:59;31.23;;;26.40;;
35522;SDS011;61478;50.820;4.330;2022-10-15T03:47:25;33.25;;;26.40;;
35522;SDS011;61478;50.820;4.330;2022-10-15T03:49:50;34.17;;;27.60;;
35522;SDS011;61478;50.820;4.330;2022-10-15T03:52:16;30.40;;;25.58;;
35522;SDS011;61478;50.820;4.330;2022-10-15T03:54:46;28.83;;;23.75;;
35522;SDS011;61478;50.820;4.330;2022-10-15T03:57:12;30.13;;;24.70;;
35522;SDS011;61478;50.820;4.330;2022-10-15T03:59:38;27.08;;;23.50;;
35522;SDS011;61478;50.820;4.330;2022-10-15T04:02:04;26.98;;;22.85;;
35522;SDS011;61478;50.820;4.330;2022-10-15T04:04:30;24.58;;;20.95;;
35522;SDS011;61478;50.820;4.330;2022-10-15T04:06:56;23.35;;;20.98;;
35522;SDS011;61478;50.820;4.330;2022-10-15T04:09:22;21.90;;;19.60;;
35522;SDS011;61478;50.820;4.330;2022-10-15T04:11:48;27.45;;;20.80;;
35522;SDS011;61478;50.820;4.330;2022-10-15T04:14:14;26.60;;;19.90;;
35522;SDS011;61478;50.820;4.330;2022-10-15T04:16:40;23.10;;;19.17;;
35522;SDS011;61478;50.820;4.330;2022-10-15T04:19:06;22.05;;;19.13;;
35522;SDS011;61478;50.820;4.330;2022-10-15T04:21:32;25.80;;;20.25;;
35522;SDS011;61478;50.820;4.330;2022-10-15T04:23:58;21.55;;;18.77;;
35522;SDS011;61478;50.820;4.330;2022-10-15T04:26:24;22.83;;;19.13;;
35522;SDS011;61478;50.820;4.330;2022-10-15T04:28:50;19.63;;;17.52;;
35522;SDS011;61478;50.820;4.330;2022-10-15T04:31:16;18.40;;;16.50;;
35522;SDS011;61478;50.820;4.330;2022-10-15T04:33:42;19.80;;;16.23;;
35522;SDS011;61478;50.820;4.330;2022-10-15T04:36:11;21.02;;;16.95;;
35522;SDS011;61478;50.820;4.330;2022-10-15T04:38:38;22.10;;;16.73;;
35522;SDS011;61478;50.820;4.330;2022-10-15T04:41:05;22.23;;;16.85;;
35522;SDS011;61478;50.820;4.330;2022-10-15T04:43:33;24.58;;;21.08;;
35522;SDS011;61478;50.820;4.330;2022-10-15T04:46:00;17.25;;;15.48;;
35522;SDS011;61478;50.820;4.330;2022-10-15T04:48:28;20.40;;;15.10;;
35522;SDS011;61478;50.820;4.330;2022-10-15T04:51:08;20.70;;;15.52;;
35522;SDS011;61478;50.820;4.330;2022-10-15T04:53:37;16.33;;;14.30;;
35522;SDS011;61478;50.820;4.330;2022-10-15T04:56:04;15.93;;;13.35;;
35522;SDS011;61478;50.820;4.330;2022-10-15T04:58:32;14.82;;;13.30;;
35522;SDS011;61478;50.820;4.330;2022-10-15T05:00:59;16.27;;;13.35;;
35522;SDS011;61478;50.820;4.330;2022-10-15T05:03:26;16.02;;;12.90;;
35522;SDS011;61478;50.820;4.330;2022-10-15T05:05:52;17.00;;;13.38;;
35522;SDS011;61478;50.820;4.330;2022-10-15T05:08:18;18.42;;;13.25;;
35522;SDS011;61478;50.820;4.330;2022-10-15T05:10:48;18.88;;;13.13;;
35522;SDS011;61478;50.820;4.330;2022-10-15T05:13:14;19.58;;;13.20;;
35522;SDS011;61478;50.820;4.330;2022-10-15T05:15:39;16.05;;;12.65;;
35522;SDS011;61478;50.820;4.330;2022-10-15T05:18:05;16.58;;;12.85;;
35522;SDS011;61478;50.820;4.330;2022-10-15T05:20:31;22.70;;;12.93;;
35522;SDS011;61478;50.820;4.330;2022-10-15T05:22:57;14.75;;;12.00;;
35522;SDS011;61478;50.820;4.330;2022-10-15T05:25:23;19.90;;;11.88;;
35522;SDS011;61478;50.820;4.330;2022-10-15T05:27:49;13.95;;;11.20;;
35522;SDS011;61478;50.820;4.330;2022-10-15T05:30:14;14.27;;;11.27;;
35522;SDS011;61478;50.820;4.330;2022-10-15T05:32:40;14.75;;;10.77;;
35522;SDS011;61478;50.820;4.330;2022-10-15T05:35:06;16.92;;;10.95;;
35522;SDS011;61478;50.820;4.330;2022-10-15T05:37:32;12.45;;;10.43;;
35522;SDS011;61478;50.820;4.330;2022-10-15T05:39:58;12.20;;;10.18;;
35522;SDS011;61478;50.820;4.330;2022-10-15T05:42:24;13.82;;;10.38;;
35522;SDS011;61478;50.820;4.330;2022-10-15T05:44:51;13.40;;;10.43;;
35522;SDS011;61478;50.820;4.330;2022-10-15T05:47:17;11.23;;;9.40;;
35522;SDS011;61478;50.820;4.330;2022-10-15T05:49:42;14.50;;;10.65;;
35522;SDS011;61478;50.820;4.330;2022-10-15T05:52:08;13.93;;;10.00;;
35522;SDS011;61478;50.820;4.330;2022-10-15T05:54:34;15.02;;;10.15;;
35522;SDS011;61478;50.820;4.330;2022-10-15T05:57:00;15.63;;;9.60;;
35522;SDS011;61478;50.820;4.330;2022-10-15T05:59:26;12.80;;;9.60;;
35522;SDS011;61478;50.820;4.330;2022-10-15T06:01:51;11.70;;;9.45;;
35522;SDS011;61478;50.820;4.330;2022-10-15T06:04:17;10.80;;;9.18;;
35522;SDS011;61478;50.820;4.330;2022-10-15T06:06:43;15.18;;;9.68;;
35522;SDS011;61478;50.820;4.330;2022-10-15T06:09:09;13.18;;;8.93;;
35522;SDS011;61478;50.820;4.330;2022-10-15T06:11:35;14.48;;;9.50;;
35522;SDS011;61478;50.820;4.330;2022-10-15T06:14:01;12.32;;;9.35;;
35522;SDS011;61478;50.820;4.330;2022-10-15T06:16:27;12.65;;;9.77;;
35522;SDS011;61478;50.820;4.330;2022-10-15T06:18:53;11.77;;;8.98;;
35522;SDS011;61478;50.820;4.330;2022-10-15T06:21:19;13.13;;;9.52;;
35522;SDS011;61478;50.820;4.330;2022-10-15T06:23:45;11.90;;;9.90;;
35522;SDS011;61478;50.820;4.330;2022-10-15T06:26:10;12.88;;;9.65;;
35522;SDS011;61478;50.820;4.330;2022-10-15T06:28:37;12.40;;;9.32;;
35522;SDS011;61478;50.820;4.330;2022-10-15T06:31:04;10.05;;;8.38;;
35522;SDS011;61478;50.820;4.330;2022-10-15T06:33:30;12.43;;;9.00;;
35522;SDS011;61478;50.820;4.330;2022-10-15T06:36:03;14.85;;;8.95;;
35522;SDS011;61478;50.820;4.330;2022-10-15T06:38:33;10.23;;;8.35;;
35522;SDS011;61478;50.820;4.330;2022-10-15T06:40:59;12.18;;;7.97;;
35522;SDS011;61478;50.820;4.330;2022-10-15T06:43:29;10.27;;;8.48;;
35522;SDS011;61478;50.820;4.330;2022-10-15T06:45:58;12.98;;;8.52;;
35522;SDS011;61478;50.820;4.330;2022-10-15T06:48:25;11.07;;;8.63;;
35522;SDS011;61478;50.820;4.330;2022-10-15T06:50:51;12.55;;;8.75;;
35522;SDS011;61478;50.820;4.330;2022-10-15T06:53:17;11.35;;;8.68;;
35522;SDS011;61478;50.820;4.330;2022-10-15T06:55:43;10.82;;;8.52;;
35522;SDS011;61478;50.820;4.330;2022-10-15T06:58:09;15.75;;;8.35;;
35522;SDS011;61478;50.820;4.330;2022-10-15T07:00:35;9.80;;;7.93;;
35522;SDS011;61478;50.820;4.330;2022-10-15T07:03:04;10.90;;;7.63;;
35522;SDS011;61478;50.820;4.330;2022-10-15T07:05:31;12.27;;;8.13;;
35522;SDS011;61478;50.820;4.330;2022-10-15T07:07:58;16.08;;;8.85;;
35522;SDS011;61478;50.820;4.330;2022-10-15T07:10:25;9.02;;;7.55;;
35522;SDS011;61478;50.820;4.330;2022-10-15T07:12:52;10.50;;;8.00;;
35522;SDS011;61478;50.820;4.330;2022-10-15T07:15:20;11.23;;;8.18;;
35522;SDS011;61478;50.820;4.330;2022-10-15T07:17:50;7.90;;;6.97;;
35522;SDS011;61478;50.820;4.330;2022-10-15T07:20:20;10.65;;;7.38;;
35522;SDS011;61478;50.820;4.330;2022-10-15T07:22:46;9.85;;;7.95;;
35522;SDS011;61478;50.820;4.330;2022-10-15T07:25:13;9.57;;;7.90;;
35522;SDS011;61478;50.820;4.330;2022-10-15T07:27:40;8.35;;;6.93;;
35522;SDS011;61478;50.820;4.330;2022-10-15T07:30:06;9.93;;;6.80;;
35522;SDS011;61478;50.820;4.330;2022-10-15T07:32:33;7.07;;;6.22;;
35522;SDS011;61478;50.820;4.330;2022-10-15T07:34:59;7.00;;;6.30;;
35522;SDS011;61478;50.820;4.330;2022-10-15T07:37:25;6.43;;;5.72;;
35522;SDS011;61478;50.820;4.330;2022-10-15T07:39:51;7.55;;;5.72;;
35522;SDS011;61478;50.820;4.330;2022-10-15T07:42:17;10.45;;;6.63;;
35522;SDS011;61478;50.820;4.330;2022-10-15T07:44:44;9.07;;;6.05;;
35522;SDS011;61478;50.820;4.330;2022-10-15T07:47:11;7.55;;;5.95;;
35522;SDS011;61478;50.820;4.330;2022-10-15T07:49:37;7.32;;;6.13;;
35522;SDS011;61478;50.820;4.330;2022-10-15T07:52:06;7.07;;;5.57;;
35522;SDS011;61478;50.820;4.330;2022-10-15T07:54:32;6.60;;;5.43;;
35522;SDS011;61478;50.820;4.330;2022-10-15T07:56:59;7.30;;;5.80;;
35522;SDS011;61478;50.820;4.330;2022-10-15T07:59:25;9.20;;;6.40;;
35522;SDS011;61478;50.820;4.330;2022-10-15T08:01:50;6.80;;;5.22;;
35522;SDS011;61478;50.820;4.330;2022-10-15T08:04:16;6.65;;;5.50;;
35522;SDS011;61478;50.820;4.330;2022-10-15T08:06:44;8.82;;;5.35;;
35522;SDS011;61478;50.820;4.330;2022-10-15T08:09:10;7.00;;;5.40;;
35522;SDS011;61478;50.820;4.330;2022-10-15T08:11:36;7.38;;;5.03;;
35522;SDS011;61478;50.820;4.330;2022-10-15T08:14:02;7.28;;;5.00;;
35522;SDS011;61478;50.820;4.330;2022-10-15T08:16:28;6.63;;;5.15;;
35522;SDS011;61478;50.820;4.330;2022-10-15T08:18:54;5.95;;;4.32;;
35522;SDS011;61478;50.820;4.330;2022-10-15T08:21:21;9.20;;;4.05;;
35522;SDS011;61478;50.820;4.330;2022-10-15T08:23:47;4.65;;;3.85;;
35522;SDS011;61478;50.820;4.330;2022-10-15T08:26:13;6.07;;;3.88;;
35522;SDS011;61478;50.820;4.330;2022-10-15T08:28:39;5.78;;;3.60;;
35522;SDS011;61478;50.820;4.330;2022-10-15T08:31:05;5.90;;;3.38;;
35522;SDS011;61478;50.820;4.330;2022-10-15T08:33:32;7.63;;;3.75;;
35522;SDS011;61478;50.820;4.330;2022-10-15T08:36:00;3.47;;;2.13;;
35522;SDS011;61478;50.820;4.330;2022-10-15T08:38:29;7.43;;;3.55;;
35522;SDS011;61478;50.820;4.330;2022-10-15T08:40:56;3.88;;;2.60;;
35522;SDS011;61478;50.820;4.330;2022-10-15T08:43:37;2.72;;;2.00;;
35522;SDS011;61478;50.820;4.330;2022-10-15T08:46:08;2.28;;;1.83;;
35522;SDS011;61478;50.820;4.330;2022-10-15T08:48:46;4.47;;;2.53;;
35522;SDS011;61478;50.820;4.330;2022-10-15T08:51:18;3.38;;;2.92;;
35522;SDS011;61478;50.820;4.330;2022-10-15T08:53:48;3.45;;;1.40;;
35522;SDS011;61478;50.820;4.330;2022-10-15T08:56:26;5.47;;;1.75;;
35522;SDS011;61478;50.820;4.330;2022-10-15T09:01:51;1.20;;;1.00;;
35522;SDS011;61478;50.820;4.330;2022-10-15T09:04:37;1.50;;;0.93;;
35522;SDS011;61478;50.820;4.330;2022-10-15T09:07:18;2.50;;;1.42;;
35522;SDS011;61478;50.820;4.330;2022-10-15T09:09:51;2.15;;;0.70;;
35522;SDS011;61478;50.820;4.330;2022-10-15T09:15:08;0.98;;;0.88;;
35522;SDS011;61478;50.820;4.330;2022-10-15T09:17:38;0.55;;;0.47;;
35522;SDS011;61478;50.820;4.330;2022-10-15T09:20:05;1.25;;;0.90;;
35522;SDS011;61478;50.820;4.330;2022-10-15T09:22:38;2.67;;;0.98;;
35522;SDS011;61478;50.820;4.330;2022-10-15T09:25:15;1.65;;;0.93;;
35522;SDS011;61478;50.820;4.330;2022-10-15T09:27:45;1.20;;;0.90;;
35522;SDS011;61478;50.820;4.330;2022-10-15T09:35:28;1.23;;;1.08;;
35522;SDS011;61478;50.820;4.330;2022-10-15T09:43:31;3.10;;;1.33;;
35522;SDS011;61478;50.820;4.330;2022-10-15T09:46:03;2.08;;;1.30;;
35522;SDS011;61478;50.820;4.330;2022-10-15T09:48:34;1.50;;;1.40;;
35522;SDS011;61478;50.820;4.330;2022-10-15T09:54:03;4.68;;;1.38;;
35522;SDS011;61478;50.820;4.330;2022-10-15T09:56:38;5.97;;;1.20;;
35522;SDS011;61478;50.820;4.330;2022-10-15T09:59:17;4.32;;;1.10;;
35522;SDS011;61478;50.820;4.330;2022-10-15T10:02:30;5.60;;;1.20;;
35522;SDS011;61478;50.820;4.330;2022-10-15T10:04:40;2.65;;;1.00;;
35522;SDS011;61478;50.820;4.330;2022-10-15T10:07:06;5.07;;;1.48;;
35522;SDS011;61478;50.820;4.330;2022-10-15T10:09:48;2.35;;;1.02;;
35522;SDS011;61478;50.820;4.330;2022-10-15T10:12:20;1.10;;;0.98;;
35522;SDS011;61478;50.820;4.330;2022-10-15T10:17:23;2.03;;;0.93;;
35522;SDS011;61478;50.820;4.330;2022-10-15T10:30:51;1.83;;;1.33;;
35522;SDS011;61478;50.820;4.330;2022-10-15T10:33:21;4.90;;;1.70;;
35522;SDS011;61478;50.820;4.330;2022-10-15T10:35:53;2.95;;;1.10;;
35522;SDS011;61478;50.820;4.330;2022-10-15T10:38:26;3.25;;;1.40;;
35522;SDS011;61478;50.820;4.330;2022-10-15T10:40:58;11.02;;;5.45;;
35522;SDS011;61478;50.820;4.330;2022-10-15T10:43:32;2.17;;;1.48;;
35522;SDS011;61478;50.820;4.330;2022-10-15T10:46:04;3.50;;;1.63;;
35522;SDS011;61478;50.820;4.330;2022-10-15T10:48:44;1.27;;;1.17;;
35522;SDS011;61478;50.820;4.330;2022-10-15T10:51:14;1.55;;;1.10;;
35522;SDS011;61478;50.820;4.330;2022-10-15T10:56:12;3.65;;;1.52;;
35522;SDS011;61478;50.820;4.330;2022-10-15T10:58:39;2.10;;;1.27;;
35522;SDS011;61478;50.820;4.330;2022-10-15T11:01:09;2.53;;;1.75;;
35522;SDS011;61478;50.820;4.330;2022-10-15T11:03:38;1.58;;;1.23;;
35522;SDS011;61478;50.820;4.330;2022-10-15T11:17:33;1.88;;;1.10;;
35522;SDS011;61478;50.820;4.330;2022-10-15T11:23:05;2.63;;;1.80;;
35522;SDS011;61478;50.820;4.330;2022-10-15T11:26:28;1.50;;;1.10;;
35522;SDS011;61478;50.820;4.330;2022-10-15T11:29:12;2.00;;;1.60;;
35522;SDS011;61478;50.820;4.330;2022-10-15T11:32:07;2.45;;;1.52;;
35522;SDS011;61478;50.820;4.330;2022-10-15T11:35:03;6.28;;;3.85;;
35522;SDS011;61478;50.820;4.330;2022-10-15T11:38:00;1.40;;;1.17;;
35522;SDS011;61478;50.820;4.330;2022-10-15T11:43:31;2.40;;;1.67;;
35522;SDS011;61478;50.820;4.330;2022-10-15T11:46:09;2.10;;;1.90;;
35522;SDS011;61478;50.820;4.330;2022-10-15T11:51:54;11.63;;;9.50;;
35522;SDS011;61478;50.820;4.330;2022-10-15T11:54:44;2.28;;;1.58;;
35522;SDS011;61478;50.820;4.330;2022-10-15T11:57:20;2.55;;;1.52;;
35522;SDS011;61478;50.820;4.330;2022-10-15T11:59:54;3.03;;;2.17;;
35522;SDS011;61478;50.820;4.330;2022-10-15T12:02:32;2.40;;;1.58;;
35522;SDS011;61478;50.820;4.330;2022-10-15T12:07:45;4.43;;;1.73;;
35522;SDS011;61478;50.820;4.330;2022-10-15T12:18:51;6.40;;;1.63;;
35522;SDS011;61478;50.820;4.330;2022-10-15T12:21:39;1.88;;;1.50;;
35522;SDS011;61478;50.820;4.330;2022-10-15T12:24:47;2.22;;;1.30;;
35522;SDS011;61478;50.820;4.330;2022-10-15T12:29:44;3.15;;;0.95;;
35522;SDS011;61478;50.820;4.330;2022-10-15T12:32:22;0.77;;;0.73;;
35522;SDS011;61478;50.820;4.330;2022-10-15T12:34:59;6.68;;;4.50;;
35522;SDS011;61478;50.820;4.330;2022-10-15T12:37:28;3.38;;;2.08;;
35522;SDS011;61478;50.820;4.330;2022-10-15T12:40:23;4.15;;;2.17;;
35522;SDS011;61478;50.820;4.330;2022-10-15T12:45:38;2.15;;;0.90;;
35522;SDS011;61478;50.820;4.330;2022-10-15T12:48:29;1.52;;;0.73;;
35522;SDS011;61478;50.820;4.330;2022-10-15T12:53:43;1.80;;;0.93;;
35522;SDS011;61478;50.820;4.330;2022-10-15T12:56:11;2.85;;;0.55;;
35522;SDS011;61478;50.820;4.330;2022-10-15T12:58:44;4.50;;;0.90;;
35522;SDS011;61478;50.820;4.330;2022-10-15T13:03:44;3.17;;;0.73;;
35522;SDS011;61478;50.820;4.330;2022-10-15T13:08:47;3.72;;;1.55;;
35522;SDS011;61478;50.820;4.330;2022-10-15T13:11:23;7.68;;;1.15;;
35522;SDS011;61478;50.820;4.330;2022-10-15T13:14:00;3.40;;;1.48;;
35522;SDS011;61478;50.820;4.330;2022-10-15T13:16:32;1.08;;;0.68;;
35522;SDS011;61478;50.820;4.330;2022-10-15T13:18:59;3.85;;;1.45;;
35522;SDS011;61478;50.820;4.330;2022-10-15T13:21:47;6.97;;;1.42;;
35522;SDS011;61478;50.820;4.330;2022-10-15T13:24:16;5.25;;;0.98;;
35522;SDS011;61478;50.820;4.330;2022-10-15T13:26:43;2.78;;;1.13;;
35522;SDS011;61478;50.820;4.330;2022-10-15T13:29:19;5.28;;;1.55;;
35522;SDS011;61478;50.820;4.330;2022-10-15T13:31:50;2.30;;;1.08;;
35522;SDS011;61478;50.820;4.330;2022-10-15T13:36:50;6.78;;;1.10;;
35522;SDS011;61478;50.820;4.330;2022-10-15T13:39:23;6.00;;;1.20;;
35522;SDS011;61478;50.820;4.330;2022-10-15T13:44:54;4.40;;;0.93;;
35522;SDS011;61478;50.820;4.330;2022-10-15T13:47:31;7.93;;;2.55;;
35522;SDS011;61478;50.820;4.330;2022-10-15T13:56:00;9.20;;;1.92;;
35522;SDS011;61478;50.820;4.330;2022-10-15T13:58:39;9.95;;;2.05;;
35522;SDS011;61478;50.820;4.330;2022-10-15T14:01:19;8.90;;;1.80;;
35522;SDS011;61478;50.820;4.330;2022-10-15T14:03:50;2.65;;;1.15;;
35522;SDS011;61478;50.820;4.330;2022-10-15T14:06:21;11.60;;;1.70;;
35522;SDS011;61478;50.820;4.330;2022-10-15T14:08:51;4.75;;;1.27;;
35522;SDS011;61478;50.820;4.330;2022-10-15T14:11:22;6.32;;;1.13;;
35522;SDS011;61478;50.820;4.330;2022-10-15T14:13:55;8.20;;;1.58;;
35522;SDS011;61478;50.820;4.330;2022-10-15T14:21:33;5.95;;;1.38;;
35522;SDS011;61478;50.820;4.330;2022-10-15T14:24:20;4.18;;;1.17;;
35522;SDS011;61478;50.820;4.330;2022-10-15T14:26:49;6.05;;;1.48;;
35522;SDS011;61478;50.820;4.330;2022-10-15T14:29:21;4.95;;;1.27;;
35522;SDS011;61478;50.820;4.330;2022-10-15T14:31:53;4.88;;;1.13;;
35522;SDS011;61478;50.820;4.330;2022-10-15T14:36:58;5.90;;;1.35;;
35522;SDS011;61478;50.820;4.330;2022-10-15T14:39:34;7.80;;;1.42;;
35522;SDS011;61478;50.820;4.330;2022-10-15T14:42:04;14.05;;;2.40;;
35522;SDS011;61478;50.820;4.330;2022-10-15T14:44:49;8.18;;;2.00;;
35522;SDS011;61478;50.820;4.330;2022-10-15T14:47:20;4.28;;;1.30;;
35522;SDS011;61478;50.820;4.330;2022-10-15T14:49:49;3.10;;;1.20;;
35522;SDS011;61478;50.820;4.330;2022-10-15T14:52:17;10.40;;;1.67;;
35522;SDS011;61478;50.820;4.330;2022-10-15T14:54:46;4.85;;;1.20;;
35522;SDS011;61478;50.820;4.330;2022-10-15T14:57:31;5.55;;;1.40;;
35522;SDS011;61478;50.820;4.330;2022-10-15T15:00:03;14.43;;;2.20;;
35522;SDS011;61478;50.820;4.330;2022-10-15T15:02:56;6.97;;;1.70;;
35522;SDS011;61478;50.820;4.330;2022-10-15T15:05:24;15.48;;;1.52;;
35522;SDS011;61478;50.820;4.330;2022-10-15T15:07:51;4.85;;;1.63;;
35522;SDS011;61478;50.820;4.330;2022-10-15T15:10:19;8.00;;;3.15;;
35522;SDS011;61478;50.820;4.330;2022-10-15T15:12:47;8.13;;;2.30;;
35522;SDS011;61478;50.820;4.330;2022-10-15T15:15:16;12.13;;;1.73;;
35522;SDS011;61478;50.820;4.330;2022-10-15T15:17:44;6.00;;;1.40;;
35522;SDS011;61478;50.820;4.330;2022-10-15T15:20:11;6.45;;;1.27;;
35522;SDS011;61478;50.820;4.330;2022-10-15T15:22:37;8.02;;;1.50;;
35522;SDS011;61478;50.820;4.330;2022-10-15T15:25:06;6.65;;;1.50;;
35522;SDS011;61478;50.820;4.330;2022-10-15T15:27:42;5.35;;;1.27;;
35522;SDS011;61478;50.820;4.330;2022-10-15T15:30:15;8.57;;;1.10;;
35522;SDS011;61478;50.820;4.330;2022-10-15T15:32:43;8.75;;;2.25;;
35522;SDS011;61478;50.820;4.330;2022-10-15T15:35:23;5.45;;;1.65;;
35522;SDS011;61478;50.820;4.330;2022-10-15T15:37:54;3.77;;;1.83;;
35522;SDS011;61478;50.820;4.330;2022-10-15T15:40:20;7.68;;;1.30;;
35522;SDS011;61478;50.820;4.330;2022-10-15T15:42:46;6.47;;;1.60;;
35522;SDS011;61478;50.820;4.330;2022-10-15T15:45:17;4.55;;;1.42;;
35522;SDS011;61478;50.820;4.330;2022-10-15T15:47:51;5.18;;;1.23;;
35522;SDS011;61478;50.820;4.330;2022-10-15T15:50:18;8.68;;;1.92;;
35522;SDS011;61478;50.820;4.330;2022-10-15T15:52:45;7.05;;;1.60;;
35522;SDS011;61478;50.820;4.330;2022-10-15T15:55:12;10.68;;;2.58;;
35522;SDS011;61478;50.820;4.330;2022-10-15T15:57:38;6.18;;;1.40;;
35522;SDS011;61478;50.820;4.330;2022-10-15T16:00:05;10.43;;;1.52;;
35522;SDS011;61478;50.820;4.330;2022-10-15T16:02:33;8.38;;;1.92;;
35522;SDS011;61478;50.820;4.330;2022-10-15T16:05:00;7.95;;;1.48;;
35522;SDS011;61478;50.820;4.330;2022-10-15T16:15:05;9.60;;;2.40;;
35522;SDS011;61478;50.820;4.330;2022-10-15T16:17:31;6.05;;;1.55;;
35522;SDS011;61478;50.820;4.330;2022-10-15T16:19:58;8.45;;;2.55;;
35522;SDS011;61478;50.820;4.330;2022-10-15T16:22:24;11.85;;;1.70;;
35522;SDS011;61478;50.820;4.330;2022-10-15T16:24:50;9.55;;;3.28;;
35522;SDS011;61478;50.820;4.330;2022-10-15T16:27:16;11.20;;;1.80;;
35522;SDS011;61478;50.820;4.330;2022-10-15T16:29:41;11.02;;;3.47;;
35522;SDS011;61478;50.820;4.330;2022-10-15T16:32:07;5.15;;;1.45;;
35522;SDS011;61478;50.820;4.330;2022-10-15T16:34:33;7.85;;;2.30;;
35522;SDS011;61478;50.820;4.330;2022-10-15T16:36:59;17.65;;;2.50;;
35522;SDS011;61478;50.820;4.330;2022-10-15T16:39:25;13.98;;;3.42;;
35522;SDS011;61478;50.820;4.330;2022-10-15T16:41:51;12.05;;;2.28;;
35522;SDS011;61478;50.820;4.330;2022-10-15T16:44:17;12.55;;;2.80;;
35522;SDS011;61478;50.820;4.330;2022-10-15T16:46:43;9.32;;;2.67;;
35522;SDS011;61478;50.820;4.330;2022-10-15T16:49:09;7.22;;;2.83;;
35522;SDS011;61478;50.820;4.330;2022-10-15T16:51:35;9.77;;;2.00;;
35522;SDS011;61478;50.820;4.330;2022-10-15T16:54:01;7.43;;;2.10;;
35522;SDS011;61478;50.820;4.330;2022-10-15T16:56:28;7.45;;;1.95;;
35522;SDS011;61478;50.820;4.330;2022-10-15T16:58:55;7.38;;;2.67;;
35522;SDS011;61478;50.820;4.330;2022-10-15T17:01:23;8.43;;;2.50;;
35522;SDS011;61478;50.820;4.330;2022-10-15T17:03:51;13.20;;;2.47;;
35522;SDS011;61478;50.820;4.330;2022-10-15T17:06:19;15.60;;;2.83;;
35522;SDS011;61478;50.820;4.330;2022-10-15T17:08:54;19.48;;;3.70;;
35522;SDS011;61478;50.820;4.330;2022-10-15T17:11:31;14.13;;;2.78;;
35522;SDS011;61478;50.820;4.330;2022-10-15T17:14:00;11.30;;;2.20;;
35522;SDS011;61478;50.820;4.330;2022-10-15T17:16:29;8.40;;;2.38;;
35522;SDS011;61478;50.820;4.330;2022-10-15T17:18:57;23.63;;;3.33;;
35522;SDS011;61478;50.820;4.330;2022-10-15T17:21:25;7.25;;;2.38;;
35522;SDS011;61478;50.820;4.330;2022-10-15T17:23:53;10.18;;;3.25;;
35522;SDS011;61478;50.820;4.330;2022-10-15T17:26:22;11.57;;;2.65;;